Crumpton, MD (21628)

2:01 AM EDT on September 04, 2015 (GMT -0400)
PUCK'S GLEN FARM | | Change Station
CLOSE
Current Station
Personal Weather Station
Location: Millington, MD
Elevation: 50 ft
Nearby Weather Stations

Elev 50 ft 39.25 °N, 75.91 °W | Updated 1 minute ago

Clear
Clear
72.0 °F
Feels Like 72.0 °F
N
0.0
Wind Variable Wind from NNE

Today
High -- | Low -- °F
--% Chance of Precip.
Yesterday
High -- | Low -- °F
Precip. -- in
6:34 AM 7:30 PM
Waning Gibbous, 63% visible
Pressure 29.88 in
Visibility 4.0 miles
Clouds Clear
Dew Point 72 °F
Humidity 100%
Rainfall 0.00 in
Snow Depth Not available.
UV 0 out of 12
Pollen 9.80 out of 12
Air Quality Not available.
Flu Activity Not available.
METAR KDOV 040558Z AUTO 00000KT 4SM R01/4500FT BR CLR 23/23 A2987 RMK AO2 SLP118 T02320231 10290 20226 50002 VISNO RWY19 CHINO RWY19 $
Pressure 29.88 in
Visibility 4.0 miles
Clouds Clear
Dew Point 72 °F
Humidity 100%
Rainfall 0.00 in
Snow Depth Not available.
UV 0 out of 12
Pollen 9.80 out of 12
Air Quality Not available.
Flu Activity Not available.
METAR KDOV 040558Z AUTO 00000KT 4SM R01/4500FT BR CLR 23/23 A2987 RMK AO2 SLP118 T02320231 10290 20226 50002 VISNO RWY19 CHINO RWY19 $

10-Day Weather Forecast

×

Almanac

Astronomy

Sep. 04, 2015 Rise Set
Actual Time
Civil Twilight
Nautical Twilight
Astronomical Twilight
Moon
Length of Visible Light
Length of Day
Tomorrow will be .
, % of the Moon is Illuminated

Today's Extremes

State Highs State Lows

Community

WunderPhotos

Upload Photos

1,852,132 photos uploaded!

WunderBlogs® & News

Nearby

Air Quality

  Air Quality AQ Index Pollutant
Not available.

Snow Depth

Station Depth Elevation

Earthquake Activity

City Distance Mag. Time & Date
Minimum magnitude displayed is 2.5.

Coastal Water Temperatures

Place Temperature

Stations

Nearby Weather Stations

Station Location Temp. Windchill Dew Point Humidity Wind Precip. Elev Updated Type